createdAt,value
2022-08-05T00:00:18.586Z,1.88
2022-08-05T00:02:51.008Z,1.70
2022-08-05T00:06:01.459Z,1.48
2022-08-05T00:08:34.786Z,1.60
2022-08-05T00:11:02.443Z,1.70
2022-08-05T00:13:38.195Z,1.27
2022-08-05T00:16:12.751Z,1.77
2022-08-05T00:18:46.015Z,1.90
2022-08-05T00:21:17.325Z,1.60
2022-08-05T00:23:53.385Z,1.83
2022-08-05T00:26:34.414Z,1.65
2022-08-05T00:29:01.773Z,1.83
2022-08-05T00:31:53.427Z,1.70
2022-08-05T00:34:55.634Z,1.90
2022-08-05T00:37:12.709Z,1.80
2022-08-05T00:39:58.600Z,1.90
2022-08-05T00:42:37.203Z,2.05
2022-08-05T00:45:08.442Z,2.30
2022-08-05T00:47:56.783Z,2.17
2022-08-05T00:50:25.388Z,1.85
2022-08-05T00:52:55.136Z,2.30
2022-08-05T00:55:23.503Z,2.00
2022-08-05T00:58:16.963Z,2.15
2022-08-05T01:00:50.104Z,2.17
2022-08-05T01:03:22.732Z,2.35
2022-08-05T01:05:51.697Z,2.30
2022-08-05T01:08:30.292Z,2.58
2022-08-05T01:11:24.231Z,2.60
2022-08-05T01:14:34.106Z,3.00
2022-08-05T01:17:06.206Z,2.80
2022-08-05T01:20:01.881Z,3.08
2022-08-05T01:23:15.385Z,2.72
2022-08-05T01:26:01.145Z,3.25
2022-08-05T01:28:39.421Z,2.70
2022-08-05T01:31:15.234Z,2.70
2022-08-05T01:34:14.253Z,2.90
2022-08-05T01:36:49.543Z,3.38
2022-08-05T01:39:46.142Z,3.33
2022-08-05T01:42:13.705Z,3.03
2022-08-05T01:44:45.704Z,2.30
2022-08-05T01:47:22.862Z,2.88
2022-08-05T01:50:01.463Z,2.95
2022-08-05T01:52:32.696Z,2.90
2022-08-05T01:55:04.582Z,2.92
2022-08-05T01:58:10.631Z,3.13
2022-08-05T02:00:30.263Z,3.47
2022-08-05T02:03:07.643Z,2.53
2022-08-05T02:05:59.623Z,2.50
2022-08-05T02:08:30.637Z,3.30
2022-08-05T02:11:12.003Z,2.70
2022-08-05T02:13:48.691Z,2.30
2022-08-05T02:16:32.935Z,2.75
2022-08-05T02:19:23.903Z,2.65
2022-08-05T02:22:25.422Z,3.10
2022-08-05T02:25:12.492Z,2.70
2022-08-05T02:27:59.382Z,2.42
2022-08-05T02:30:37.933Z,2.55
2022-08-05T02:33:24.389Z,2.53
2022-08-05T02:36:05.524Z,2.40
2022-08-05T02:38:35.537Z,2.20
2022-08-05T02:41:14.454Z,2.60
2022-08-05T02:44:06.067Z,2.35
2022-08-05T02:46:43.936Z,3.08
2022-08-05T02:49:22.415Z,2.55
2022-08-05T02:52:04.006Z,2.47
2022-08-05T02:54:36.263Z,2.72
2022-08-05T02:58:11.266Z,2.60
2022-08-05T02:59:59.489Z,2.90
2022-08-05T03:02:34.613Z,3.05
2022-08-05T03:05:04.351Z,2.05
2022-08-05T03:08:00.978Z,2.38
2022-08-05T03:10:22.067Z,2.20
2022-08-05T03:12:54.315Z,2.00
2022-08-05T03:15:23.533Z,1.98
2022-08-05T03:17:57.747Z,2.08
2022-08-05T03:20:25.332Z,1.90
2022-08-05T03:22:57.128Z,2.08
2022-08-05T03:25:32.809Z,1.83
2022-08-05T03:28:14.543Z,1.80
2022-08-05T03:30:48.559Z,1.73
2022-08-05T03:33:17.143Z,2.08
2022-08-05T03:35:48.704Z,1.98
2022-08-05T03:38:17.691Z,2.30
2022-08-05T03:41:00.713Z,2.20
2022-08-05T03:44:09.236Z,1.77
2022-08-05T03:46:42.303Z,1.95
2022-08-05T03:49:10.063Z,1.73
2022-08-05T03:52:37.187Z,1.90
2022-08-05T03:56:01.492Z,2.05
2022-08-05T03:57:46.855Z,2.03
2022-08-05T04:00:16.482Z,2.10
2022-08-05T04:02:58.204Z,2.00
2022-08-05T04:05:35.742Z,2.33
2022-08-05T04:08:29.613Z,2.17
2022-08-05T04:10:55.750Z,2.00
2022-08-05T04:13:23.456Z,2.10
2022-08-05T04:16:02.889Z,2.00
2022-08-05T04:18:34.286Z,2.13
2022-08-05T04:21:02.539Z,2.03
2022-08-05T04:24:06.290Z,2.50
2022-08-05T04:26:19.302Z,2.17
2022-08-05T04:28:51.299Z,2.00
2022-08-05T04:31:20.271Z,2.13
2022-08-05T04:34:17.429Z,2.08
2022-08-05T04:36:45.634Z,2.28
2022-08-05T04:39:18.366Z,1.90
2022-08-05T04:41:48.040Z,2.00
2022-08-05T04:44:21.282Z,1.90
2022-08-05T04:46:56.769Z,2.10
2022-08-05T04:49:38.883Z,2.30
2022-08-05T04:52:14.022Z,2.40
2022-08-05T04:54:42.521Z,2.13
2022-08-05T04:57:09.862Z,2.45
2022-08-05T04:59:38.966Z,2.40
2022-08-05T05:02:36.334Z,2.75
2022-08-05T05:05:02.268Z,2.30
2022-08-05T05:07:32.677Z,2.03
2022-08-05T05:10:04.482Z,1.90
2022-08-05T05:12:32.334Z,2.10
2022-08-05T05:14:59.594Z,3.25
2022-08-05T05:17:56.764Z,2.00
2022-08-05T05:22:58.439Z,2.35
2022-08-05T05:25:40.239Z,2.40
2022-08-05T05:28:09.259Z,2.00
2022-08-05T05:30:37.593Z,2.58
2022-08-05T05:33:15.844Z,2.17
2022-08-05T05:35:47.724Z,2.00
2022-08-05T05:38:26.719Z,1.92
2022-08-05T05:40:56.483Z,2.08
2022-08-05T05:43:54.290Z,2.30
2022-08-05T05:46:17.296Z,2.40
2022-08-05T05:48:48.192Z,1.90
2022-08-05T05:51:27.833Z,2.08
2022-08-05T05:53:59.512Z,2.03
2022-08-05T05:56:34.110Z,1.98
2022-08-05T05:59:05.403Z,2.10
2022-08-05T06:01:39.703Z,2.15
2022-08-05T06:04:12.153Z,2.38
2022-08-05T06:06:43.085Z,1.98
2022-08-05T06:09:17.279Z,2.30
2022-08-05T06:11:59.075Z,2.40
2022-08-05T06:14:29.038Z,1.75
2022-08-05T06:16:56.872Z,2.20
2022-08-05T06:19:32.972Z,2.20
2022-08-05T06:22:04.145Z,2.03
2022-08-05T06:24:32.214Z,2.42
2022-08-05T06:26:59.604Z,1.83
2022-08-05T06:29:46.559Z,2.08
2022-08-05T06:32:25.674Z,2.38
2022-08-05T06:34:58.535Z,2.20
2022-08-05T06:37:56.182Z,2.25
2022-08-05T06:40:18.170Z,2.20
2022-08-05T06:42:52.610Z,1.95
2022-08-05T06:45:44.478Z,2.30
2022-08-05T06:48:36.386Z,2.22
2022-08-05T06:50:57.283Z,2.58
2022-08-05T06:53:28.610Z,2.10
2022-08-05T06:56:00.993Z,2.30
2022-08-05T06:58:34.798Z,2.38
2022-08-05T07:01:04.368Z,2.08
2022-08-05T07:03:33.333Z,2.20
2022-08-05T07:06:06.153Z,2.25
2022-08-05T07:08:47.958Z,2.42
2022-08-05T07:11:22.115Z,2.35
2022-08-05T07:14:19.939Z,2.25
2022-08-05T07:17:56.227Z,2.13
2022-08-05T07:22:28.307Z,2.20
2022-08-05T07:25:23.553Z,2.20
2022-08-05T07:27:58.296Z,2.67
2022-08-05T07:30:39.999Z,2.60
2022-08-05T07:33:16.825Z,2.20
2022-08-05T07:36:03.641Z,2.03
2022-08-05T07:38:42.507Z,2.97
2022-08-05T07:42:07.698Z,2.17
2022-08-05T07:44:06.544Z,2.30
2022-08-05T07:46:42.063Z,2.17
2022-08-05T07:49:15.608Z,1.95
2022-08-05T07:51:53.591Z,2.20
2022-08-05T07:54:31.639Z,2.47
2022-08-05T07:57:17.594Z,2.22
2022-08-05T07:59:52.366Z,2.15
2022-08-05T08:02:26.514Z,2.13
2022-08-05T08:04:58.796Z,2.38
2022-08-05T08:07:28.464Z,2.60
2022-08-05T08:09:56.293Z,2.03
2022-08-05T08:12:37.284Z,2.10
2022-08-05T08:15:15.206Z,2.17
2022-08-05T08:17:50.809Z,2.20
2022-08-05T08:20:44.574Z,1.95
2022-08-05T08:23:59.683Z,2.22
2022-08-05T08:26:02.481Z,2.20
2022-08-05T08:28:36.183Z,2.35
2022-08-05T08:31:10.033Z,2.13
2022-08-05T08:33:43.764Z,2.38
2022-08-05T08:36:38.831Z,2.38
2022-08-05T08:38:58.746Z,2.53
2022-08-05T08:41:52.377Z,1.90
2022-08-05T08:45:24.264Z,1.90
2022-08-05T08:47:47.472Z,2.00
2022-08-05T08:50:22.299Z,2.38
2022-08-05T08:52:55.925Z,2.00
2022-08-05T08:56:01.710Z,1.73
2022-08-05T08:58:13.252Z,2.00
2022-08-05T09:00:42.095Z,1.70
2022-08-05T09:03:11.509Z,2.42
2022-08-05T09:06:08.434Z,2.25
2022-08-05T09:08:27.345Z,2.28
2022-08-05T09:10:54.913Z,2.03
2022-08-05T09:13:23.622Z,2.00
2022-08-05T09:15:51.993Z,1.92
2022-08-05T09:18:19.723Z,1.80
2022-08-05T09:20:47.311Z,1.80
2022-08-05T09:23:21.703Z,2.20
2022-08-05T09:26:03.325Z,2.25
2022-08-05T09:28:35.058Z,2.42
2022-08-05T09:31:43.687Z,2.00
2022-08-05T09:34:00.223Z,1.90
2022-08-05T09:36:55.574Z,2.10
2022-08-05T09:39:39.196Z,1.75
2022-08-05T09:42:20.153Z,2.70
2022-08-05T09:44:56.607Z,1.98
2022-08-05T09:47:36.322Z,1.80
2022-08-05T09:50:37.506Z,2.03
2022-08-05T09:53:06.373Z,2.92
2022-08-05T09:55:57.651Z,1.90
2022-08-05T09:58:25.474Z,2.13
2022-08-05T10:01:13.498Z,2.00
2022-08-05T10:04:00.526Z,1.88
2022-08-05T10:06:28.655Z,2.00
2022-08-05T10:08:56.846Z,1.90
2022-08-05T10:11:24.243Z,2.00
2022-08-05T10:13:58.776Z,1.90
2022-08-05T10:16:41.765Z,1.60
2022-08-05T10:19:23.646Z,2.00
2022-08-05T10:21:59.704Z,2.35
2022-08-05T10:24:28.602Z,2.00
2022-08-05T10:27:00.596Z,2.22
2022-08-05T10:30:06.627Z,1.90
2022-08-05T10:33:01.178Z,2.03
2022-08-05T10:35:08.994Z,2.08
2022-08-05T10:37:44.505Z,1.92
2022-08-05T10:40:45.076Z,2.47
2022-08-05T10:43:19.094Z,1.90
2022-08-05T10:46:06.353Z,2.33
2022-08-05T10:48:39.503Z,1.95
2022-08-05T10:51:23.062Z,2.28
2022-08-05T10:54:01.566Z,2.17
2022-08-05T10:56:36.663Z,1.75
2022-08-05T11:00:01.042Z,2.03
2022-08-05T11:02:34.397Z,2.08
2022-08-05T11:05:00.273Z,2.10
2022-08-05T11:07:33.278Z,2.20
2022-08-05T11:10:29.327Z,2.03
2022-08-05T11:12:58.726Z,2.10
2022-08-05T11:16:00.894Z,2.03
2022-08-05T11:18:34.109Z,1.67
2022-08-05T11:21:11.565Z,1.80
2022-08-05T11:24:04.503Z,2.00
2022-08-05T11:26:32.535Z,1.90
2022-08-05T11:29:13.434Z,2.15
2022-08-05T11:31:58.293Z,1.73
2022-08-05T11:34:51.079Z,2.10
2022-08-05T11:38:30.245Z,1.77
2022-08-05T11:41:03.622Z,2.20
2022-08-05T11:44:12.576Z,1.70
2022-08-05T11:47:11.131Z,1.80
2022-08-05T11:49:43.355Z,1.80
2022-08-05T11:52:29.224Z,1.70
2022-08-05T11:54:58.788Z,1.80
2022-08-05T11:58:08.362Z,1.75
2022-08-05T12:00:30.586Z,2.08
2022-08-05T12:02:58.409Z,1.77
2022-08-05T12:05:36.093Z,1.88
2022-08-05T12:08:11.528Z,2.22
2022-08-05T12:10:46.577Z,2.03
2022-08-05T12:13:27.971Z,1.50
2022-08-05T12:16:14.406Z,2.08
2022-08-05T12:18:42.786Z,1.90
2022-08-05T12:21:24.234Z,1.63
2022-08-05T12:24:06.753Z,1.80
2022-08-05T12:32:02.056Z,1.80
2022-08-05T12:34:33.805Z,1.85
2022-08-05T12:37:17.682Z,1.98
2022-08-05T12:39:53.804Z,1.92
2022-08-05T12:42:25.276Z,1.83
2022-08-05T12:44:53.028Z,1.73
2022-08-05T12:47:31.120Z,2.03
2022-08-05T12:50:04.369Z,1.40
2022-08-05T12:52:42.181Z,2.05
2022-08-05T12:55:26.624Z,2.50
2022-08-05T12:58:50.934Z,1.60
2022-08-05T13:01:59.783Z,1.80
2022-08-05T13:03:42.092Z,2.10
2022-08-05T13:06:16.603Z,1.80
2022-08-05T13:08:50.740Z,1.73
2022-08-05T13:11:25.479Z,2.25
2022-08-05T13:14:15.977Z,2.20
2022-08-05T13:16:57.306Z,4.30
2022-08-05T13:19:52.433Z,1.73
2022-08-05T13:22:29.201Z,1.90
2022-08-05T13:25:00.470Z,1.85
2022-08-05T13:27:42.037Z,2.10
2022-08-05T13:30:35.041Z,1.88
2022-08-05T13:35:46.922Z,1.95
2022-08-05T13:38:30.763Z,2.30
2022-08-05T13:41:04.235Z,2.20
2022-08-05T13:43:45.858Z,1.80
2022-08-05T13:46:30.671Z,1.98
2022-08-05T13:49:09.929Z,1.67
2022-08-05T13:51:41.001Z,2.20
2022-08-05T13:54:15.075Z,2.17
2022-08-05T13:56:45.137Z,1.85
2022-08-05T13:59:23.767Z,1.90
2022-08-05T14:01:57.528Z,1.80
2022-08-05T14:04:50.139Z,1.80
2022-08-05T14:07:55.487Z,1.90
2022-08-05T14:10:30.682Z,1.65
2022-08-05T14:12:59.835Z,2.08
2022-08-05T14:16:05.605Z,1.90
2022-08-05T14:18:18.652Z,1.98
2022-08-05T14:20:55.074Z,2.38
2022-08-05T14:23:25.518Z,2.42
2022-08-05T14:25:58.867Z,2.30
2022-08-05T14:28:30.677Z,1.95
2022-08-05T14:30:59.745Z,1.60
2022-08-05T14:33:56.811Z,1.95
2022-08-05T14:36:16.037Z,2.00
2022-08-05T14:38:50.145Z,1.90
2022-08-05T14:41:18.675Z,2.13
2022-08-05T14:43:59.324Z,2.03
2022-08-05T14:46:35.004Z,2.10
2022-08-05T14:49:07.445Z,1.83
2022-08-05T14:51:42.777Z,1.95
2022-08-05T14:54:28.141Z,2.10
2022-08-05T14:56:58.806Z,2.00
2022-08-05T14:59:29.181Z,1.83
2022-08-05T15:01:57.923Z,1.63
2022-08-05T15:04:27.272Z,1.90
2022-08-05T15:06:56.596Z,2.00
2022-08-05T15:09:51.530Z,2.05
2022-08-05T15:12:16.861Z,1.75
2022-08-05T15:14:49.948Z,2.00
2022-08-05T15:17:46.502Z,1.85
2022-08-05T15:20:18.306Z,1.90
2022-08-05T15:22:52.197Z,2.05
2022-08-05T15:25:23.512Z,2.03
2022-08-05T15:28:13.132Z,2.38
2022-08-05T15:30:43.393Z,2.10
2022-08-05T15:33:11.732Z,1.85
2022-08-05T15:35:45.549Z,1.77
2022-08-05T15:38:36.169Z,2.10
2022-08-05T15:41:20.769Z,1.90
2022-08-05T15:43:48.672Z,1.85
2022-08-05T15:46:16.194Z,2.13
2022-08-05T15:48:51.943Z,2.00
2022-08-05T15:52:13.240Z,2.00
2022-08-05T15:54:14.988Z,1.95
2022-08-05T15:56:43.686Z,1.73
2022-08-05T15:59:20.235Z,2.10
2022-08-05T16:01:52.599Z,1.80
2022-08-05T16:04:25.543Z,2.30
2022-08-05T16:06:55.476Z,2.00
2022-08-05T16:09:23.795Z,2.40
2022-08-05T16:11:53.815Z,1.90
2022-08-05T16:14:22.569Z,2.05
2022-08-05T16:16:50.662Z,2.10
2022-08-05T16:19:25.322Z,1.95
2022-08-05T16:22:07.326Z,2.00
2022-08-05T16:24:41.419Z,2.10
2022-08-05T16:27:19.246Z,2.10
2022-08-05T16:29:59.716Z,2.10
2022-08-05T16:32:29.322Z,2.10
2022-08-05T16:34:58.940Z,1.90
2022-08-05T16:38:16.174Z,1.90
2022-08-05T16:40:26.758Z,2.05
2022-08-05T16:42:56.857Z,1.80
2022-08-05T16:46:04.070Z,2.05
2022-08-05T16:48:11.605Z,2.05
2022-08-05T16:50:53.495Z,2.03
2022-08-05T16:53:22.959Z,1.98
2022-08-05T16:56:00.120Z,1.60
2022-08-05T16:58:27.425Z,1.92
2022-08-05T17:00:55.364Z,2.13
2022-08-05T17:03:22.986Z,2.03
2022-08-05T17:05:54.275Z,2.30
2022-08-05T17:08:36.409Z,1.95
2022-08-05T17:11:17.462Z,1.80
2022-08-05T17:13:45.866Z,1.90
2022-08-05T17:16:29.640Z,2.22
2022-08-05T17:18:57.998Z,2.72
2022-08-05T17:21:25.326Z,1.60
2022-08-05T17:24:18.376Z,1.77
2022-08-05T17:26:51.226Z,2.38
2022-08-05T17:29:22.527Z,1.70
2022-08-05T17:32:00.394Z,1.90
2022-08-05T17:34:29.771Z,1.70
2022-08-05T17:36:57.745Z,2.00
2022-08-05T17:39:33.186Z,1.98
2022-08-05T17:42:28.495Z,1.75
2022-08-05T17:44:51.392Z,1.92
2022-08-05T17:47:22.027Z,2.08
2022-08-05T17:50:04.050Z,1.83
2022-08-05T17:52:53.096Z,2.03
2022-08-05T17:55:34.152Z,1.85
2022-08-05T17:58:02.475Z,1.95
2022-08-05T18:00:30.277Z,2.00
2022-08-05T18:02:58.281Z,1.80
2022-08-05T18:05:27.890Z,1.70
2022-08-05T18:07:56.847Z,1.80
2022-08-05T18:10:24.510Z,2.00
2022-08-05T18:12:53.106Z,1.80
2022-08-05T18:15:20.855Z,1.85
2022-08-05T18:18:01.167Z,1.67
2022-08-05T18:20:32.024Z,1.50
2022-08-05T18:23:11.191Z,1.83
2022-08-05T18:25:44.041Z,1.83
2022-08-05T18:28:16.136Z,1.80
2022-08-05T18:30:45.980Z,1.73
2022-08-05T18:33:23.121Z,1.67
2022-08-05T18:36:03.691Z,1.80
2022-08-05T18:38:36.382Z,1.90
2022-08-05T18:41:56.462Z,1.73
2022-08-05T18:43:53.017Z,1.70
2022-08-05T18:46:20.663Z,1.75
2022-08-05T18:48:51.565Z,1.95
2022-08-05T18:52:02.766Z,1.60
2022-08-05T18:54:28.585Z,1.48
2022-08-05T18:57:01.044Z,1.70
2022-08-05T18:59:43.212Z,1.80
2022-08-05T19:02:38.073Z,1.80
2022-08-05T19:06:06.023Z,1.50
2022-08-05T19:07:57.003Z,1.70
2022-08-05T19:10:26.623Z,1.70
2022-08-05T19:12:57.337Z,1.70
2022-08-05T19:15:58.828Z,1.58
2022-08-05T19:18:22.365Z,1.80
2022-08-05T19:20:54.276Z,1.70
2022-08-05T19:24:05.141Z,1.80
2022-08-05T19:26:11.781Z,1.63
2022-08-05T19:28:43.622Z,1.70
2022-08-05T19:31:13.217Z,1.85
2022-08-05T19:33:48.751Z,1.50
2022-08-05T19:36:29.350Z,1.63
2022-08-05T19:38:58.926Z,2.05
2022-08-05T19:41:58.293Z,2.13
2022-08-05T19:44:17.056Z,1.88
2022-08-05T19:46:46.393Z,2.00
2022-08-05T19:49:16.984Z,2.03
2022-08-05T19:52:04.790Z,1.70
2022-08-05T19:54:34.554Z,1.60
2022-08-05T19:57:09.521Z,1.45
2022-08-05T19:59:56.486Z,1.52
2022-08-05T20:02:28.024Z,1.50
2022-08-05T20:04:58.849Z,1.70
2022-08-05T20:07:48.291Z,1.45
2022-08-05T20:10:17.507Z,1.50
2022-08-05T20:12:49.239Z,1.65
2022-08-05T20:15:48.139Z,1.60
2022-08-05T20:18:10.368Z,1.40
2022-08-05T20:20:56.962Z,1.90
2022-08-05T20:23:40.238Z,1.80
2022-08-05T20:26:16.585Z,1.30
2022-08-05T20:28:51.052Z,1.70
2022-08-05T20:31:36.759Z,1.77
2022-08-05T20:34:05.136Z,1.30
2022-08-05T20:36:32.728Z,1.70
2022-08-05T20:39:00.203Z,2.00
2022-08-05T20:41:44.007Z,1.92
2022-08-05T20:44:17.710Z,2.03
2022-08-05T20:46:59.680Z,1.60
2022-08-05T20:49:27.446Z,1.92
2022-08-05T20:51:55.949Z,1.83
2022-08-05T20:54:59.925Z,1.88
2022-08-05T20:57:29.134Z,1.95
2022-08-05T21:00:21.155Z,4.82
2022-08-05T21:02:56.089Z,3.42
2022-08-05T21:05:24.839Z,3.65
2022-08-05T21:07:52.547Z,3.40
2022-08-05T21:10:21.477Z,5.05
2022-08-05T21:12:57.861Z,4.22
2022-08-05T21:15:36.836Z,5.72
2022-08-05T21:18:04.726Z,4.80
2022-08-05T21:20:33.495Z,4.60
2022-08-05T21:23:01.606Z,3.33
2022-08-05T21:25:33.662Z,2.70
2022-08-05T21:28:03.109Z,1.95
2022-08-05T21:30:31.685Z,1.75
2022-08-05T21:32:59.930Z,1.45
2022-08-05T21:35:55.403Z,1.58
2022-08-05T21:38:17.892Z,1.60
2022-08-05T21:40:45.274Z,1.63
2022-08-05T21:43:17.681Z,1.70
2022-08-05T21:45:57.428Z,1.60
2022-08-05T21:48:28.789Z,1.45
2022-08-05T21:50:57.244Z,1.63
2022-08-05T21:53:27.581Z,1.83
2022-08-05T21:56:09.599Z,1.65
2022-08-05T21:58:42.100Z,1.60
2022-08-05T22:01:10.777Z,1.50
2022-08-05T22:03:48.975Z,1.73
2022-08-05T22:06:23.116Z,1.70
2022-08-05T22:09:13.791Z,1.80
2022-08-05T22:11:48.387Z,1.60
2022-08-05T22:14:34.517Z,1.50
2022-08-05T22:17:07.457Z,1.88
2022-08-05T22:20:02.125Z,1.58
2022-08-05T22:22:27.769Z,2.05
2022-08-05T22:25:20.942Z,1.65
2022-08-05T22:28:08.131Z,1.92
2022-08-05T22:30:55.554Z,1.65
2022-08-05T22:33:57.944Z,1.65
2022-08-05T22:36:15.918Z,1.90
2022-08-05T22:38:48.497Z,2.17
2022-08-05T22:42:04.921Z,1.60
2022-08-05T22:44:06.117Z,1.80
2022-08-05T22:46:33.466Z,1.60
2022-08-05T22:49:12.404Z,1.83
2022-08-05T22:52:05.527Z,1.73
2022-08-05T22:54:36.472Z,2.13
2022-08-05T22:57:06.939Z,2.60
2022-08-05T22:59:44.140Z,2.47
2022-08-05T23:02:18.637Z,2.15
2022-08-05T23:05:18.297Z,2.35
2022-08-05T23:07:48.620Z,3.08
2022-08-05T23:10:23.477Z,3.42
2022-08-05T23:12:55.074Z,3.22
2022-08-05T23:15:28.967Z,2.95
2022-08-05T23:18:00.737Z,2.47
2022-08-05T23:20:37.483Z,2.13
2022-08-05T23:23:08.198Z,1.52
2022-08-05T23:25:53.524Z,1.83
2022-08-05T23:28:28.752Z,2.55
2022-08-05T23:31:02.261Z,3.50
2022-08-05T23:34:04.952Z,2.83
2022-08-05T23:36:38.558Z,2.55
2022-08-05T23:39:07.380Z,3.15
2022-08-05T23:41:37.304Z,2.85
2022-08-05T23:44:09.026Z,3.08
2022-08-05T23:46:37.285Z,3.30
2022-08-05T23:49:16.158Z,3.65
2022-08-05T23:52:03.220Z,4.28
2022-08-05T23:54:38.384Z,3.55
2022-08-05T23:57:07.449Z,2.80
